Time;durP1;ratioP1;P1;durP2;ratioP2;P2;SDS_P1;SDS_P2;PMS_P1;PMS_P2;Temp;Humidity;BMP_temperature;BMP_pressure;BME280_temperature;BME280_humidity;BME280_pressure;Samples;Min_cycle;Max_cycle;Signal;HPM_P1;HPM_P2
2022/08/31 00:05:45;;;;;;;2.42;1.10;;;18.00;1.00;;;;;;5023173;28;20560;-70
2022/08/31 00:08:12;;;;;;;4.73;1.23;;;18.00;1.00;;;;;;5008623;28;20277;-72
2022/08/31 00:10:42;;;;;;;4.30;1.70;;;18.00;1.00;;;;;;5020261;28;20204;-72
2022/08/31 00:13:11;;;;;;;4.47;1.50;;;18.00;1.00;;;;;;5017157;28;20224;-68
2022/08/31 00:15:38;;;;;;;3.27;1.40;;;18.00;1.00;;;;;;5019751;28;20184;-68
2022/08/31 00:18:05;;;;;;;2.20;1.23;;;17.90;1.00;;;;;;5020123;28;20258;-68
2022/08/31 00:20:33;;;;;;;1.40;1.30;;;17.90;1.00;;;;;;5010420;28;20192;-68
2022/08/31 00:23:06;;;;;;;2.58;1.42;;;17.90;1.00;;;;;;5003217;28;20212;-69
2022/08/31 00:25:35;;;;;;;3.22;1.38;;;17.90;1.00;;;;;;5007269;28;20227;-69
2022/08/31 00:28:03;;;;;;;3.13;1.42;;;17.90;1.00;;;;;;5018730;28;20224;-68
2022/08/31 00:30:31;;;;;;;4.30;1.50;;;17.80;1.00;;;;;;5022028;28;20190;-70
2022/08/31 00:32:58;;;;;;;1.23;1.13;;;17.80;1.00;;;;;;5001119;28;20221;-69
2022/08/31 00:35:31;;;;;;;1.45;1.20;;;17.80;1.00;;;;;;5020501;28;20201;-69
2022/08/31 00:37:58;;;;;;;3.30;1.30;;;17.80;1.00;;;;;;5004558;28;20197;-69
2022/08/31 00:40:25;;;;;;;2.20;1.08;;;17.80;1.00;;;;;;5011458;28;20235;-70
2022/08/31 00:42:53;;;;;;;1.30;1.17;;;17.80;1.00;;;;;;5001929;28;20196;-69
2022/08/31 00:45:21;;;;;;;4.82;1.40;;;17.80;1.00;;;;;;5006744;28;20200;-70
2022/08/31 00:47:50;;;;;;;3.60;1.02;;;17.80;1.00;;;;;;5007179;28;20590;-69
2022/08/31 00:50:18;;;;;;;2.17;1.20;;;17.90;1.00;;;;;;5018631;28;20193;-70
2022/08/31 00:52:50;;;;;;;2.70;1.23;;;17.90;1.00;;;;;;5003015;28;20209;-70
2022/08/31 00:55:21;;;;;;;4.28;1.38;;;17.90;1.00;;;;;;4998462;28;20208;-70
2022/08/31 00:57:52;;;;;;;5.25;1.40;;;17.90;1.00;;;;;;5008149;28;20562;-70
2022/08/31 01:00:22;;;;;;;1.42;1.33;;;17.90;1.00;;;;;;4985160;28;20231;-70
2022/08/31 01:02:50;;;;;;;3.93;1.37;;;17.80;1.00;;;;;;5001481;28;20204;-70
2022/08/31 01:05:18;;;;;;;1.75;1.30;;;17.80;1.00;;;;;;5019562;28;20949;-69
2022/08/31 01:07:47;;;;;;;2.08;1.33;;;17.80;1.00;;;;;;5002150;28;20568;-69
2022/08/31 01:10:16;;;;;;;2.72;1.25;;;17.70;1.00;;;;;;5009717;28;20212;-69
2022/08/31 01:12:45;;;;;;;4.03;1.60;;;17.70;1.00;;;;;;5003892;28;20262;-69
2022/08/31 01:15:14;;;;;;;3.45;1.40;;;17.70;1.00;;;;;;5019422;28;20197;-69
2022/08/31 01:17:43;;;;;;;3.97;1.65;;;17.60;1.00;;;;;;5017175;28;20211;-69
2022/08/31 01:20:13;;;;;;;1.40;1.30;;;17.50;1.00;;;;;;5021197;28;20660;-71
2022/08/31 01:23:12;;;;;;;1.30;1.20;;;17.50;1.00;;;;;;5020522;28;20200;-67
2022/08/31 01:25:43;;;;;;;1.67;1.20;;;17.40;1.00;;;;;;5006154;28;20206;-67
2022/08/31 01:28:11;;;;;;;4.07;1.50;;;17.40;1.00;;;;;;5001404;28;20205;-68
2022/08/31 01:30:40;;;;;;;1.60;1.50;;;17.40;1.00;;;;;;5021393;28;20251;-67
2022/08/31 01:33:10;;;;;;;4.33;1.43;;;17.30;1.00;;;;;;5020829;28;20422;-67
2022/08/31 01:35:38;;;;;;;1.77;1.30;;;17.30;1.00;;;;;;5021021;28;20227;-68
2022/08/31 01:38:06;;;;;;;2.00;1.43;;;17.30;1.00;;;;;;5001462;28;20834;-68
2022/08/31 01:40:45;;;;;;;2.80;1.30;;;17.30;1.00;;;;;;4993712;28;20193;-68
2022/08/31 01:43:12;;;;;;;5.40;1.50;;;17.30;1.00;;;;;;5014292;28;20211;-68
2022/08/31 01:45:40;;;;;;;2.10;1.30;;;17.20;1.00;;;;;;5002372;28;20196;-69
2022/08/31 01:48:07;;;;;;;3.63;1.40;;;17.20;1.00;;;;;;5009098;28;20210;-70
2022/08/31 01:50:34;;;;;;;1.50;1.40;;;17.20;1.00;;;;;;5002536;28;20196;-68
2022/08/31 01:53:02;;;;;;;2.87;1.40;;;17.20;1.00;;;;;;5007492;28;20296;-67
2022/08/31 01:55:29;;;;;;;5.23;1.90;;;17.20;1.00;;;;;;5004414;28;20205;-67
2022/08/31 01:57:57;;;;;;;2.63;1.30;;;17.20;1.00;;;;;;5002921;28;20188;-70
2022/08/31 02:00:56;;;;;;;2.53;1.33;;;17.20;1.00;;;;;;4963449;28;20209;-69
2022/08/31 02:03:23;;;;;;;2.23;1.47;;;17.10;1.00;;;;;;5015084;28;20204;-70
2022/08/31 02:05:50;;;;;;;2.60;1.50;;;17.10;1.00;;;;;;4989301;28;20233;-71
2022/08/31 02:08:17;;;;;;;3.07;1.80;;;17.10;1.00;;;;;;5016593;28;20192;-71
2022/08/31 02:10:45;;;;;;;1.33;1.20;;;17.10;1.00;;;;;;5003679;28;20227;-72
2022/08/31 02:13:12;;;;;;;4.00;1.30;;;17.10;1.00;;;;;;5006994;28;20591;-72
2022/08/31 02:15:39;;;;;;;1.67;1.30;;;17.10;1.00;;;;;;5013184;28;20216;-73
2022/08/31 02:18:07;;;;;;;2.20;1.50;;;17.00;1.00;;;;;;5005013;28;20224;-72
2022/08/31 02:20:38;;;;;;;3.43;1.50;;;16.90;1.00;;;;;;5005399;28;20365;-70
2022/08/31 02:23:05;;;;;;;2.17;1.57;;;16.80;1.00;;;;;;5001969;28;20679;-72
2022/08/31 02:25:33;;;;;;;1.50;1.40;;;16.80;1.00;;;;;;5012045;28;20351;-70
2022/08/31 02:28:01;;;;;;;3.20;1.60;;;16.80;1.00;;;;;;5011091;28;20236;-71
2022/08/31 02:30:29;;;;;;;1.83;1.60;;;16.70;1.00;;;;;;4994750;28;20208;-71
2022/08/31 02:32:56;;;;;;;3.63;1.80;;;16.70;1.00;;;;;;4990720;28;20216;-70
2022/08/31 02:35:23;;;;;;;2.27;1.50;;;16.70;1.00;;;;;;4998982;28;20192;-72
2022/08/31 02:37:50;;;;;;;2.70;1.50;;;16.60;1.00;;;;;;5001800;28;20200;-71
2022/08/31 02:40:17;;;;;;;2.00;1.53;;;16.60;1.00;;;;;;5017375;28;20778;-71
2022/08/31 02:42:46;;;;;;;4.03;1.73;;;16.60;1.00;;;;;;5012658;28;20207;-70
2022/08/31 02:45:22;;;;;;;2.40;1.50;;;16.60;1.00;;;;;;5018450;28;20852;-68
2022/08/31 02:47:50;;;;;;;2.00;1.60;;;16.50;1.00;;;;;;5016846;28;20289;-71
2022/08/31 02:50:27;;;;;;;3.47;1.63;;;16.40;1.00;;;;;;5017076;28;20200;-70
2022/08/31 02:52:55;;;;;;;3.33;2.20;;;16.40;1.00;;;;;;5001013;28;20216;-72
2022/08/31 02:55:24;;;;;;;2.57;1.70;;;16.30;1.00;;;;;;5011024;28;20210;-75
2022/08/31 02:57:52;;;;;;;4.43;1.83;;;16.30;1.00;;;;;;5001811;28;20203;-71
2022/08/31 03:00:22;;;;;;;2.50;1.77;;;16.30;1.00;;;;;;5006853;28;20288;-65
2022/08/31 03:02:49;;;;;;;2.97;1.80;;;16.20;1.00;;;;;;5013409;28;20201;-66
2022/08/31 03:05:17;;;;;;;3.13;1.77;;;16.20;1.00;;;;;;5024956;28;20258;-66
2022/08/31 03:07:44;;;;;;;2.77;1.80;;;16.20;1.00;;;;;;5036526;28;20219;-65
2022/08/31 03:10:13;;;;;;;4.97;1.57;;;16.20;1.00;;;;;;5036066;28;20204;-67
2022/08/31 03:12:41;;;;;;;4.50;1.87;;;16.10;1.00;;;;;;5054269;28;20265;-65
2022/08/31 03:15:09;;;;;;;3.13;1.80;;;16.10;1.00;;;;;;5037740;28;20204;-67
2022/08/31 03:17:36;;;;;;;4.30;1.80;;;16.00;1.00;;;;;;5037180;28;20253;-65
2022/08/31 03:20:06;;;;;;;2.60;1.73;;;16.00;1.00;;;;;;5043911;28;20583;-65
2022/08/31 03:22:33;;;;;;;3.07;1.83;;;16.00;1.00;;;;;;5052886;28;20223;-65
2022/08/31 03:25:00;;;;;;;3.40;1.90;;;16.00;1.00;;;;;;5036999;28;20278;-65
2022/08/31 03:27:29;;;;;;;1.93;1.67;;;16.00;1.00;;;;;;5021480;28;20230;-65
2022/08/31 03:29:57;;;;;;;3.40;1.97;;;15.90;1.00;;;;;;5022670;28;20231;-64
2022/08/31 03:32:27;;;;;;;1.80;1.70;;;15.90;1.00;;;;;;5035686;28;20243;-65
2022/08/31 03:34:55;;;;;;;3.27;2.00;;;15.90;1.00;;;;;;5031949;28;20198;-65
2022/08/31 03:37:23;;;;;;;3.40;1.83;;;15.90;1.00;;;;;;5031796;28;20271;-65
2022/08/31 03:39:52;;;;;;;4.37;1.90;;;15.90;1.00;;;;;;5046620;28;20196;-66
2022/08/31 03:42:19;;;;;;;2.50;1.80;;;15.80;1.00;;;;;;5028721;28;20192;-66
2022/08/31 03:44:46;;;;;;;2.27;1.70;;;15.80;1.00;;;;;;5044453;28;20212;-66
2022/08/31 03:47:21;;;;;;;2.47;1.90;;;15.80;1.00;;;;;;5034649;28;20577;-66
2022/08/31 03:49:49;;;;;;;4.13;2.10;;;15.80;1.00;;;;;;5030878;28;20730;-67
2022/08/31 03:52:23;;;;;;;2.70;1.70;;;15.70;1.00;;;;;;5041492;28;20195;-66
2022/08/31 03:54:59;;;;;;;2.00;1.77;;;15.70;1.00;;;;;;5034216;28;20192;-66
2022/08/31 03:57:26;;;;;;;1.83;1.67;;;15.70;1.00;;;;;;5034415;28;20329;-67
2022/08/31 03:59:56;;;;;;;2.93;2.00;;;15.70;1.00;;;;;;5047992;28;21034;-69
2022/08/31 04:02:41;;;;;;;1.93;1.70;;;15.60;1.00;;;;;;5033415;28;20254;-67
2022/08/31 04:05:29;;;;;;;2.03;1.83;;;15.60;1.00;;;;;;5037013;28;20230;-68
2022/08/31 04:08:16;;;;;;;3.13;1.70;;;15.60;1.00;;;;;;5036931;28;20669;-68
2022/08/31 04:10:46;;;;;;;2.30;1.87;;;15.60;1.00;;;;;;5037777;28;20204;-69
2022/08/31 04:13:31;;;;;;;5.00;1.90;;;15.60;1.00;;;;;;5034458;28;21009;-67
2022/08/31 04:16:21;;;;;;;4.77;1.90;;;15.70;1.00;;;;;;5035483;28;20330;-68
2022/08/31 04:19:08;;;;;;;2.97;1.67;;;15.60;1.00;;;;;;5036304;28;20191;-68
2022/08/31 04:21:43;;;;;;;3.63;2.00;;;15.60;1.00;;;;;;5029668;28;20196;-68
2022/08/31 04:24:12;;;;;;;2.83;2.10;;;15.60;1.00;;;;;;5048447;28;21152;-68
2022/08/31 04:26:39;;;;;;;4.13;1.90;;;15.60;1.00;;;;;;5051366;28;20319;-69
2022/08/31 04:29:08;;;;;;;3.90;1.93;;;15.60;1.00;;;;;;5014449;28;20200;-67
2022/08/31 04:31:40;;;;;;;3.67;1.80;;;15.50;1.00;;;;;;5017131;28;20227;-67
2022/08/31 04:34:07;;;;;;;2.27;1.90;;;15.60;1.00;;;;;;5031012;28;20263;-66
2022/08/31 04:36:35;;;;;;;3.53;2.40;;;15.60;1.00;;;;;;5035004;28;20242;-66
2022/08/31 04:39:04;;;;;;;5.23;1.87;;;15.60;1.00;;;;;;5034619;28;20241;-67
2022/08/31 04:41:34;;;;;;;6.70;1.83;;;15.60;1.00;;;;;;5017509;28;20202;-69
2022/08/31 04:44:03;;;;;;;2.50;1.90;;;15.70;1.00;;;;;;5033259;28;20200;-67
2022/08/31 04:46:31;;;;;;;4.03;2.17;;;15.60;1.00;;;;;;5030040;28;20298;-68
2022/08/31 04:48:58;;;;;;;3.77;1.80;;;15.60;1.00;;;;;;5034633;28;20227;-65
2022/08/31 04:51:29;;;;;;;5.30;2.20;;;15.60;1.00;;;;;;5031458;28;22425;-67
2022/08/31 04:53:57;;;;;;;5.97;1.90;;;15.60;1.00;;;;;;5037119;28;20618;-66
2022/08/31 04:56:28;;;;;;;2.13;1.87;;;15.70;1.00;;;;;;5037476;28;20195;-68
2022/08/31 04:59:04;;;;;;;3.00;2.30;;;15.80;1.00;;;;;;5056194;28;20659;-68
2022/08/31 05:01:39;;;;;;;2.13;1.93;;;15.80;1.00;;;;;;5041970;28;20192;-66
2022/08/31 05:04:27;;;;;;;4.13;2.03;;;15.80;1.00;;;;;;5039853;28;20236;-66
2022/08/31 05:06:55;;;;;;;2.67;2.10;;;15.80;1.00;;;;;;5023069;28;20204;-63
2022/08/31 05:09:23;;;;;;;2.23;1.73;;;15.80;1.00;;;;;;5005994;28;20210;-64
2022/08/31 05:11:52;;;;;;;3.20;2.30;;;15.80;1.00;;;;;;5013089;28;20219;-71
2022/08/31 05:14:20;;;;;;;2.23;1.90;;;15.80;1.00;;;;;;5023764;28;20231;-72
2022/08/31 05:16:55;;;;;;;3.73;2.20;;;15.80;1.00;;;;;;5014858;28;20295;-71
2022/08/31 05:19:22;;;;;;;2.63;1.90;;;15.90;1.00;;;;;;5013907;28;20211;-71
2022/08/31 05:21:49;;;;;;;2.27;2.00;;;16.10;1.00;;;;;;5007804;28;20388;-73
2022/08/31 05:24:21;;;;;;;3.97;1.73;;;16.20;1.00;;;;;;5020774;28;20196;-70
2022/08/31 05:26:52;;;;;;;3.80;1.80;;;16.20;1.00;;;;;;5006033;28;21155;-69
2022/08/31 05:29:22;;;;;;;7.20;2.00;;;16.20;1.00;;;;;;5025361;28;20197;-70
2022/08/31 05:31:57;;;;;;;8.43;2.03;;;16.20;1.00;;;;;;5020264;28;20405;-72
2022/08/31 05:34:24;;;;;;;3.90;2.00;;;16.10;1.00;;;;;;5009721;28;20544;-71
2022/08/31 05:36:54;;;;;;;5.43;2.03;;;16.10;1.00;;;;;;5021026;28;20203;-72
2022/08/31 05:39:22;;;;;;;6.03;2.20;;;16.20;1.00;;;;;;5011629;28;20195;-73
2022/08/31 05:41:49;;;;;;;5.63;2.00;;;16.30;1.00;;;;;;5022122;28;20209;-71
2022/08/31 05:44:19;;;;;;;5.57;2.10;;;16.20;1.00;;;;;;5019120;28;20193;-72
2022/08/31 05:46:48;;;;;;;4.10;2.23;;;16.20;1.00;;;;;;4993419;28;20300;-70
2022/08/31 05:49:27;;;;;;;6.07;1.70;;;16.30;1.00;;;;;;5004835;28;20197;-71
2022/08/31 05:51:55;;;;;;;5.10;2.27;;;16.30;1.00;;;;;;5002658;28;20210;-71
2022/08/31 05:54:23;;;;;;;4.03;1.97;;;16.40;1.00;;;;;;4994443;28;20209;-71
2022/08/31 05:56:50;;;;;;;10.63;2.37;;;16.40;1.00;;;;;;5012275;28;20236;-70
2022/08/31 05:59:17;;;;;;;8.77;2.00;;;16.40;1.00;;;;;;5000825;28;20600;-71
2022/08/31 06:01:44;;;;;;;4.90;2.20;;;16.40;1.00;;;;;;5002198;28;20204;-70
2022/08/31 06:04:11;;;;;;;5.10;1.90;;;16.40;1.00;;;;;;5009521;28;20423;-70
2022/08/31 06:06:40;;;;;;;3.57;1.93;;;16.50;1.00;;;;;;4999588;28;20212;-71
2022/08/31 06:09:10;;;;;;;5.97;1.80;;;16.50;1.00;;;;;;5018663;28;20209;-71
2022/08/31 06:11:40;;;;;;;3.70;1.80;;;16.60;1.00;;;;;;5005266;28;20223;-73
2022/08/31 06:14:11;;;;;;;4.85;1.80;;;16.60;1.00;;;;;;5018143;28;20247;-69
2022/08/31 06:16:42;;;;;;;4.70;2.40;;;16.70;1.00;;;;;;5002678;28;20196;-68
2022/08/31 06:19:10;;;;;;;3.97;2.10;;;16.70;1.00;;;;;;4985846;28;20208;-69
2022/08/31 06:21:42;;;;;;;2.77;2.00;;;16.80;1.00;;;;;;5017170;28;20287;-70
2022/08/31 06:24:20;;;;;;;3.77;1.80;;;16.90;1.00;;;;;;5003977;28;20205;-70
2022/08/31 06:26:54;;;;;;;4.10;2.20;;;16.90;1.00;;;;;;5009398;28;20231;-70
2022/08/31 06:29:30;;;;;;;4.27;2.30;;;16.90;1.00;;;;;;5002944;28;20211;-71
2022/08/31 06:31:59;;;;;;;3.23;1.90;;;17.00;1.00;;;;;;5022056;28;20203;-69
2022/08/31 06:34:27;;;;;;;2.80;1.90;;;17.00;1.00;;;;;;5012980;28;20212;-69
2022/08/31 06:36:58;;;;;;;3.72;1.90;;;17.20;1.00;;;;;;5035180;28;20185;-69
2022/08/31 06:39:53;;;;;;;6.10;2.40;;;17.30;1.00;;;;;;5025708;28;20208;-69
2022/08/31 06:42:34;;;;;;;14.18;2.03;;;17.40;1.00;;;;;;5036172;28;20188;-68
2022/08/31 06:45:22;;;;;;;2.78;2.03;;;17.80;1.00;;;;;;5029729;28;20204;-69
2022/08/31 06:48:21;;;;;;;7.30;2.08;;;17.70;99.90;;;;;;5017269;28;20200;-70
2022/08/31 06:50:55;;;;;;;2.58;1.95;;;17.80;99.90;;;;;;5004551;28;20211;-68
2022/08/31 06:53:24;;;;;;;2.45;2.00;;;17.80;99.90;;;;;;4990580;28;20223;-69
2022/08/31 06:56:05;;;;;;;5.07;1.98;;;17.80;99.90;;;;;;5026792;28;20200;-70
2022/08/31 06:59:06;;;;;;;4.25;2.03;;;17.70;1.00;;;;;;5022676;28;20208;-70
2022/08/31 07:01:51;;;;;;;3.85;1.85;;;17.80;99.90;;;;;;5027357;28;20289;-70
2022/08/31 07:04:37;;;;;;;4.10;2.08;;;17.70;1.00;;;;;;5025772;28;20243;-69
2022/08/31 07:07:06;;;;;;;5.82;2.13;;;17.80;1.00;;;;;;4990642;28;20204;-71
2022/08/31 07:09:33;;;;;;;3.08;2.03;;;17.80;99.90;;;;;;5012022;28;20223;-70
2022/08/31 07:12:00;;;;;;;3.03;2.13;;;17.90;99.90;;;;;;5004878;28;20271;-70
2022/08/31 07:14:28;;;;;;;2.05;1.80;;;17.90;99.90;;;;;;5011106;28;20322;-69
2022/08/31 07:16:58;;;;;;;3.70;1.80;;;18.10;99.90;;;;;;5021445;28;20671;-70
2022/08/31 07:19:25;;;;;;;2.33;1.60;;;18.60;99.90;;;;;;5008969;28;20223;-70
2022/08/31 07:21:56;;;;;;;2.45;2.00;;;18.90;99.90;;;;;;5004813;28;20246;-71
2022/08/31 07:24:28;;;;;;;2.63;2.00;;;19.40;99.90;;;;;;5003708;28;20220;-69
2022/08/31 07:27:08;;;;;;;6.50;2.00;;;19.50;99.90;;;;;;5007803;28;20228;-70
2022/08/31 07:29:41;;;;;;;4.70;2.08;;;19.50;99.90;;;;;;5019121;28;20254;-70
2022/08/31 07:32:14;;;;;;;2.28;1.70;;;20.00;99.90;;;;;;5020949;28;20590;-70
2022/08/31 07:34:42;;;;;;;4.32;2.03;;;20.50;99.90;;;;;;5004825;28;22078;-70
2022/08/31 07:42:55;;;;;;;3.42;1.65;;;21.70;42.10;;;;;;5003488;28;20193;-68
2022/08/31 07:45:23;;;;;;;3.03;1.90;;;23.40;11.20;;;;;;5000188;28;20200;-70
2022/08/31 07:47:55;;;;;;;5.15;2.10;;;23.70;1.00;;;;;;5017333;28;20615;-70
2022/08/31 07:50:30;;;;;;;4.68;1.90;;;24.00;1.00;;;;;;4999323;28;20228;-70
2022/08/31 07:53:19;;;;;;;2.67;1.70;;;25.20;1.00;;;;;;5018205;28;20601;-69
2022/08/31 07:56:00;;;;;;;2.47;1.60;;;27.00;1.00;;;;;;5003480;28;20672;-70
2022/08/31 07:58:33;;;;;;;2.00;1.60;;;27.60;1.00;;;;;;5006210;28;20567;-70
2022/08/31 08:01:02;;;;;;;2.70;1.92;;;26.00;1.00;;;;;;5021953;28;20667;-70
2022/08/31 08:03:30;;;;;;;2.97;1.83;;;25.20;1.00;;;;;;5010720;28;20246;-70
2022/08/31 08:06:16;;;;;;;3.28;2.20;;;24.80;1.00;;;;;;5023545;28;20997;-69
2022/08/31 08:09:05;;;;;;;3.72;2.00;;;24.00;1.00;;;;;;5022272;28;20225;-70
2022/08/31 08:12:07;;;;;;;2.33;1.92;;;23.80;1.00;;;;;;5010821;28;20347;-69
2022/08/31 08:14:58;;;;;;;2.45;1.92;;;22.70;1.00;;;;;;5009608;28;20735;-70
2022/08/31 08:17:51;;;;;;;3.72;1.95;;;24.00;1.00;;;;;;4993755;28;20587;-71
2022/08/31 08:20:23;;;;;;;4.57;2.60;;;23.90;1.00;;;;;;5004140;28;20195;-69
2022/08/31 08:23:13;;;;;;;4.25;2.15;;;23.60;1.00;;;;;;5020319;28;20737;-69
2022/08/31 08:26:09;;;;;;;3.42;2.28;;;22.80;1.00;;;;;;5012863;28;20318;-70
2022/08/31 08:29:00;;;;;;;2.40;1.88;;;22.40;1.00;;;;;;5024562;28;20238;-68
2022/08/31 08:31:27;;;;;;;2.78;2.33;;;22.10;1.00;;;;;;5016590;28;20772;-71
2022/08/31 08:33:55;;;;;;;5.22;2.25;;;22.30;1.00;;;;;;5009561;28;20216;-70
2022/08/31 08:36:22;;;;;;;2.80;2.35;;;22.10;3.00;;;;;;5020900;28;20209;-69
2022/08/31 08:38:52;;;;;;;4.75;1.88;;;22.50;1.00;;;;;;5006826;28;20189;-68
2022/08/31 08:41:24;;;;;;;7.70;2.80;;;22.60;1.00;;;;;;5001323;28;20200;-69
2022/08/31 08:43:54;;;;;;;3.45;2.35;;;22.70;1.00;;;;;;5003069;28;20251;-69
2022/08/31 08:46:48;;;;;;;2.72;2.15;;;23.30;1.00;;;;;;5003236;28;20831;-70
2022/08/31 08:49:34;;;;;;;5.90;2.47;;;24.00;1.00;;;;;;5003582;28;20207;-70
2022/08/31 08:52:11;;;;;;;3.85;2.40;;;23.70;1.00;;;;;;4997878;28;20196;-70
2022/08/31 08:54:42;;;;;;;8.07;2.50;;;22.80;1.00;;;;;;5005917;28;20283;-68
2022/08/31 08:57:23;;;;;;;4.18;2.67;;;22.90;1.00;;;;;;5019439;28;20193;-69
2022/08/31 08:59:55;;;;;;;3.55;2.33;;;23.60;1.00;;;;;;5020232;28;20204;-70
2022/08/31 09:02:43;;;;;;;4.25;2.50;;;23.60;1.00;;;;;;5005095;28;20201;-70
2022/08/31 09:05:14;;;;;;;5.03;2.55;;;24.00;1.00;;;;;;5024834;28;20567;-69
2022/08/31 09:08:09;;;;;;;3.45;2.20;;;24.40;1.00;;;;;;5008171;28;20231;-70
2022/08/31 09:10:47;;;;;;;4.32;2.72;;;25.30;1.00;;;;;;4993318;28;20651;-70
2022/08/31 09:13:48;;;;;;;6.82;2.40;;;24.60;1.00;;;;;;5006402;28;20332;-69
2022/08/31 09:16:24;;;;;;;4.43;2.35;;;25.00;1.00;;;;;;4977725;28;20197;-70
2022/08/31 09:19:00;;;;;;;4.50;2.53;;;26.40;1.00;;;;;;5018354;28;20200;-68
2022/08/31 09:21:33;;;;;;;3.42;2.53;;;26.40;1.00;;;;;;5021032;28;20227;-70
2022/08/31 09:24:07;;;;;;;3.63;2.75;;;27.10;1.00;;;;;;5015113;28;20214;-67
2022/08/31 09:27:16;;;;;;;8.52;2.97;;;26.80;1.00;;;;;;5022922;28;20882;-70
2022/08/31 09:29:56;;;;;;;5.40;2.40;;;28.10;1.00;;;;;;5019220;28;20200;-69
2022/08/31 09:32:27;;;;;;;4.45;2.53;;;27.90;1.00;;;;;;5022880;28;20306;-71
2022/08/31 09:35:00;;;;;;;4.25;2.47;;;29.10;1.00;;;;;;5023039;28;20228;-71
2022/08/31 09:37:45;;;;;;;4.70;2.97;;;30.10;1.00;;;;;;5018090;28;20196;-70
2022/08/31 09:40:22;;;;;;;5.80;2.30;;;30.20;1.00;;;;;;5021206;28;20201;-69
2022/08/31 09:43:10;;;;;;;3.83;2.22;;;30.90;1.00;;;;;;5005625;28;20200;-68
2022/08/31 09:46:06;;;;;;;4.85;2.45;;;27.70;1.00;;;;;;5002973;28;20258;-68
2022/08/31 09:48:57;;;;;;;5.28;2.50;;;28.70;1.00;;;;;;5000714;28;20567;-70
2022/08/31 09:51:27;;;;;;;7.82;2.80;;;29.10;1.00;;;;;;5006999;28;20208;-70
2022/08/31 09:57:01;;;;;;;6.38;2.75;;;26.20;1.00;;;;;;4997747;28;20250;-70
2022/08/31 09:59:42;;;;;;;4.93;3.17;;;25.90;1.00;;;;;;5006866;28;20230;-69
2022/08/31 10:02:12;;;;;;;3.53;2.67;;;25.80;1.00;;;;;;4998217;28;20451;-70
2022/08/31 10:04:57;;;;;;;4.90;3.10;;;25.80;1.00;;;;;;5016973;28;20229;-69
2022/08/31 10:08:12;;;;;;;6.53;3.42;;;26.10;1.00;;;;;;5002706;28;20653;-72
2022/08/31 10:10:47;;;;;;;8.73;2.55;;;27.70;1.00;;;;;;4923074;29;20592;-69
2022/08/31 10:13:20;;;;;;;3.83;3.13;;;27.70;1.00;;;;;;4920415;28;20208;-68
2022/08/31 10:16:00;;;;;;;3.17;2.85;;;26.00;1.00;;;;;;4984852;28;20243;-71
2022/08/31 10:18:42;;;;;;;6.55;2.80;;;27.10;1.00;;;;;;5005030;28;20224;-69
2022/08/31 10:21:20;;;;;;;2.83;2.42;;;27.70;1.00;;;;;;5018965;28;20685;-70
2022/08/31 10:24:19;;;;;;;3.00;2.70;;;28.40;1.00;;;;;;5000403;28;20232;-68
2022/08/31 10:27:35;;;;;;;4.50;3.20;;;28.60;1.00;;;;;;5003633;28;20216;-69
2022/08/31 10:30:15;;;;;;;4.70;2.42;;;29.50;1.00;;;;;;4988514;28;20212;-69
2022/08/31 10:32:54;;;;;;;5.03;2.35;;;30.20;1.00;;;;;;5013630;28;20618;-70
2022/08/31 10:35:41;;;;;;;7.88;2.90;;;28.80;1.00;;;;;;4987600;28;20620;-71
2022/08/31 10:38:33;;;;;;;5.90;2.83;;;28.40;1.00;;;;;;5017094;28;20335;-69
2022/08/31 10:41:12;;;;;;;3.35;2.17;;;27.50;1.00;;;;;;5024455;28;20199;-69
2022/08/31 10:43:58;;;;;;;4.68;2.47;;;26.60;1.00;;;;;;5004336;28;20259;-68
2022/08/31 10:46:31;;;;;;;13.48;2.80;;;26.20;1.00;;;;;;5018476;28;20199;-69
2022/08/31 10:49:02;;;;;;;3.58;2.70;;;25.80;1.00;;;;;;4992903;28;20215;-70
2022/08/31 10:51:49;;;;;;;3.63;2.70;;;26.10;1.00;;;;;;5020246;28;20219;-68
2022/08/31 10:54:34;;;;;;;8.13;2.58;;;26.60;1.00;;;;;;5021928;28;20656;-69
2022/08/31 10:57:30;;;;;;;3.72;2.75;;;26.20;1.00;;;;;;5003972;28;20326;-68
2022/08/31 11:00:08;;;;;;;2.92;2.40;;;25.90;1.00;;;;;;5024052;28;20223;-70
2022/08/31 11:02:57;;;;;;;3.13;2.17;;;25.80;1.00;;;;;;5024194;28;20216;-70
2022/08/31 11:05:40;;;;;;;5.20;2.92;;;25.30;1.00;;;;;;5025561;28;20258;-67
2022/08/31 11:08:19;;;;;;;4.45;2.40;;;25.50;1.00;;;;;;5025496;28;20602;-68
2022/08/31 11:10:50;;;;;;;2.90;2.70;;;25.70;1.00;;;;;;4997341;28;20228;-68
2022/08/31 11:13:38;;;;;;;5.35;2.50;;;25.80;1.00;;;;;;5010517;28;20200;-70
2022/08/31 11:16:08;;;;;;;3.05;2.38;;;26.90;1.00;;;;;;5019698;28;20721;-69
2022/08/31 11:18:58;;;;;;;3.00;2.13;;;26.40;1.00;;;;;;5020215;28;20199;-70
2022/08/31 11:21:44;;;;;;;3.42;2.28;;;25.90;1.00;;;;;;5006469;28;20288;-68
2022/08/31 11:24:44;;;;;;;3.58;2.60;;;25.80;1.00;;;;;;5000677;28;20196;-70
2022/08/31 11:27:35;;;;;;;4.18;2.20;;;25.80;1.00;;;;;;5018769;28;20213;-70
2022/08/31 11:30:23;;;;;;;5.28;2.55;;;25.70;1.00;;;;;;5008847;28;20223;-69
2022/08/31 11:32:54;;;;;;;2.63;2.08;;;25.20;1.00;;;;;;5019582;28;20204;-68
2022/08/31 11:35:46;;;;;;;4.75;2.17;;;25.40;1.00;;;;;;5019045;28;20279;-68
2022/08/31 11:38:40;;;;;;;3.83;2.33;;;25.50;1.00;;;;;;5020629;28;20193;-70
2022/08/31 11:41:10;;;;;;;4.60;2.13;;;26.10;1.00;;;;;;5022190;28;20205;-69
2022/08/31 11:43:43;;;;;;;2.80;2.45;;;26.00;1.00;;;;;;5022006;28;20197;-70
2022/08/31 11:46:32;;;;;;;4.07;1.88;;;26.60;1.00;;;;;;5002576;28;20201;-70
2022/08/31 11:48:59;;;;;;;3.90;2.20;;;28.10;1.00;;;;;;4962434;28;20204;-68
2022/08/31 11:51:36;;;;;;;3.13;1.90;;;28.80;1.00;;;;;;5015488;28;20223;-69
2022/08/31 11:54:40;;;;;;;1.70;1.60;;;28.30;1.00;;;;;;5018889;28;20211;-70
2022/08/31 11:57:14;;;;;;;2.45;1.95;;;29.30;1.00;;;;;;5014381;28;20738;-69
2022/08/31 11:59:45;;;;;;;5.50;2.17;;;27.80;1.00;;;;;;5020434;28;20686;-69
2022/08/31 12:02:18;;;;;;;3.70;1.73;;;27.00;1.00;;;;;;4997909;28;20208;-67
2022/08/31 12:04:46;;;;;;;2.67;1.58;;;26.80;1.00;;;;;;5016198;28;20785;-68
2022/08/31 12:07:27;;;;;;;1.58;1.42;;;25.90;1.00;;;;;;5019701;28;20197;-70
2022/08/31 12:10:06;;;;;;;3.25;1.70;;;26.10;1.00;;;;;;5003183;28;20247;-69
2022/08/31 12:12:55;;;;;;;8.77;1.88;;;26.00;1.00;;;;;;5003710;28;20689;-69
2022/08/31 12:15:59;;;;;;;3.22;1.70;;;26.30;1.00;;;;;;5004223;28;20560;-67
2022/08/31 12:19:06;;;;;;;1.75;1.65;;;26.90;1.00;;;;;;4954709;28;20644;-71
2022/08/31 12:25:14;;;;;;;2.00;1.58;;;25.30;1.00;;;;;;5001640;28;20207;-69
2022/08/31 12:27:53;;;;;;;3.65;1.70;;;24.70;1.00;;;;;;4966889;28;20735;-68
2022/08/31 12:30:27;;;;;;;3.35;1.90;;;24.20;1.00;;;;;;5007744;28;20761;-67
2022/08/31 12:33:14;;;;;;;5.25;1.90;;;24.20;1.00;;;;;;5020095;28;20192;-68
2022/08/31 12:35:42;;;;;;;2.20;1.88;;;24.40;1.00;;;;;;4985760;28;20810;-70
2022/08/31 12:38:17;;;;;;;3.63;1.80;;;24.20;1.00;;;;;;5010672;28;20544;-68
2022/08/31 12:40:47;;;;;;;3.75;1.63;;;24.40;1.00;;;;;;5018178;28;20196;-70
2022/08/31 12:43:22;;;;;;;4.45;1.80;;;24.80;1.00;;;;;;5001679;28;20189;-68
2022/08/31 12:46:01;;;;;;;3.28;2.00;;;25.00;1.00;;;;;;5018751;28;20204;-69
2022/08/31 12:49:14;;;;;;;3.05;1.60;;;25.40;1.00;;;;;;5018990;28;20200;-70
2022/08/31 12:51:47;;;;;;;2.33;1.88;;;25.40;1.00;;;;;;5001046;28;20204;-69
2022/08/31 12:54:29;;;;;;;3.80;1.80;;;25.30;1.00;;;;;;5002322;28;20585;-69
2022/08/31 12:57:11;;;;;;;3.35;1.75;;;25.20;1.00;;;;;;5019067;28;20212;-69
2022/08/31 12:59:50;;;;;;;2.65;1.60;;;25.20;1.00;;;;;;5021248;28;20234;-71
2022/08/31 13:02:31;;;;;;;1.80;1.60;;;25.30;1.00;;;;;;5007365;28;20190;-70
2022/08/31 13:05:01;;;;;;;2.13;1.83;;;25.50;1.00;;;;;;5022736;28;20236;-69
2022/08/31 13:07:32;;;;;;;3.42;1.60;;;25.20;1.00;;;;;;5022882;28;20211;-70
2022/08/31 13:10:25;;;;;;;2.38;1.80;;;25.00;1.00;;;;;;5004605;28;20254;-70
2022/08/31 13:12:55;;;;;;;5.70;1.80;;;25.00;1.00;;;;;;4981116;28;20208;-69
2022/08/31 13:15:27;;;;;;;2.13;1.92;;;24.70;1.00;;;;;;5017333;28;20302;-69
2022/08/31 13:17:55;;;;;;;5.15;1.90;;;24.60;1.00;;;;;;5019780;28;20262;-70
2022/08/31 13:20:34;;;;;;;3.38;1.75;;;24.90;1.00;;;;;;5002771;28;20228;-71
2022/08/31 13:23:01;;;;;;;3.38;2.05;;;24.90;1.00;;;;;;5000760;28;20192;-69
2022/08/31 13:25:36;;;;;;;2.95;1.98;;;24.80;1.00;;;;;;5023742;28;20778;-70
2022/08/31 13:28:21;;;;;;;2.90;1.80;;;24.70;1.00;;;;;;5019777;28;20203;-70
2022/08/31 13:31:02;;;;;;;2.10;1.60;;;25.00;1.00;;;;;;5018391;28;20266;-70
2022/08/31 13:33:38;;;;;;;3.50;1.60;;;24.90;1.00;;;;;;5007090;28;20283;-70
2022/08/31 13:36:14;;;;;;;5.03;1.75;;;24.80;1.00;;;;;;5016783;28;20240;-70
2022/08/31 13:38:52;;;;;;;2.03;1.45;;;24.90;1.00;;;;;;5000020;28;20193;-69
2022/08/31 13:41:22;;;;;;;2.33;1.77;;;24.90;1.00;;;;;;5008942;28;20200;-70
2022/08/31 13:43:57;;;;;;;3.28;1.75;;;25.30;1.00;;;;;;5002950;28;20204;-70
2022/08/31 13:46:28;;;;;;;4.22;1.63;;;25.40;1.00;;;;;;5015818;28;20200;-70
2022/08/31 13:49:28;;;;;;;1.90;1.50;;;24.90;1.00;;;;;;5014108;28;20188;-69
2022/08/31 13:51:55;;;;;;;2.88;1.75;;;24.90;1.00;;;;;;5001444;28;20208;-70
2022/08/31 13:54:31;;;;;;;1.98;1.60;;;24.60;1.00;;;;;;5004209;28;20208;-71